Time;durP1;ratioP1;P1;durP2;ratioP2;P2;SDS_P1;SDS_P2;PMS_P1;PMS_P2;Temp;Humidity;BMP_temperature;BMP_pressure;BME280_temperature;BME280_humidity;BME280_pressure;Samples;Min_cycle;Max_cycle;Signal;HPM_P1;HPM_P2
2022/12/25 00:01:41;;;;;;;2.57;0.80;;;;;;;8.11;100.00;98789.19;4952081;28;20233;-59
2022/12/25 00:04:08;;;;;;;4.20;0.70;;;;;;;8.13;100.00;98789.88;4957356;28;20238;-58
2022/12/25 00:06:36;;;;;;;0.80;0.60;;;;;;;8.17;100.00;98788.66;4959744;28;20273;-58
2022/12/25 00:09:03;;;;;;;1.90;0.70;;;;;;;8.20;100.00;98792.81;4952889;28;20688;-58
2022/12/25 00:11:29;;;;;;;5.30;1.00;;;;;;;8.23;100.00;98798.53;4958100;28;20690;-58
2022/12/25 00:13:56;;;;;;;2.53;1.33;;;;;;;8.26;100.00;98798.28;4951860;28;21729;-59
2022/12/25 00:16:25;;;;;;;4.40;1.10;;;;;;;8.30;100.00;98800.63;4955325;28;20264;-59
2022/12/25 00:18:52;;;;;;;3.80;0.80;;;;;;;8.33;100.00;98803.81;4952335;28;20246;-58
2022/12/25 00:21:19;;;;;;;3.93;1.00;;;;;;;8.36;100.00;98795.72;4956557;28;20320;-58
2022/12/25 00:23:47;;;;;;;3.70;0.70;;;;;;;8.37;100.00;98792.19;4953185;28;20242;-58
2022/12/25 00:26:17;;;;;;;5.77;0.90;;;;;;;8.42;100.00;98789.16;4954443;28;20715;-59
2022/12/25 00:28:44;;;;;;;5.77;0.90;;;;;;;8.41;100.00;98793.56;4954249;28;20227;-59
2022/12/25 00:31:12;;;;;;;5.40;1.57;;;;;;;8.44;100.00;98789.03;4955192;28;20678;-58
2022/12/25 00:33:41;;;;;;;5.50;2.47;;;;;;;8.43;100.00;98790.81;4952892;28;20241;-59
2022/12/25 00:36:09;;;;;;;4.13;1.53;;;;;;;8.46;100.00;98787.13;4956120;28;20242;-58
2022/12/25 00:38:38;;;;;;;4.83;1.30;;;;;;;8.45;100.00;98794.09;4955676;28;20234;-59
2022/12/25 00:41:08;;;;;;;2.87;1.07;;;;;;;8.46;100.00;98785.34;4953535;28;20242;-58
2022/12/25 00:43:34;;;;;;;5.70;1.30;;;;;;;8.43;100.00;98783.00;4959209;28;20234;-58
2022/12/25 00:46:01;;;;;;;6.33;1.10;;;;;;;8.47;100.00;98786.19;4955270;28;20235;-59
2022/12/25 00:48:29;;;;;;;2.50;0.90;;;;;;;8.51;100.00;98791.00;4955708;28;20375;-59
2022/12/25 00:50:58;;;;;;;5.10;1.40;;;;;;;8.50;100.00;98789.34;4955115;28;21289;-59
2022/12/25 00:53:28;;;;;;;1.97;1.10;;;;;;;8.48;100.00;98787.81;4961410;28;20235;-59
2022/12/25 00:55:56;;;;;;;4.17;1.50;;;;;;;8.49;100.00;98789.47;4953075;28;20239;-59
2022/12/25 00:58:26;;;;;;;2.63;1.13;;;;;;;8.53;100.00;98788.25;4957105;28;20647;-58
2022/12/25 01:00:52;;;;;;;5.33;0.80;;;;;;;8.49;100.00;98787.72;4953617;28;20230;-58
2022/12/25 01:03:19;;;;;;;4.93;1.10;;;;;;;8.51;100.00;98783.19;4954422;28;20714;-58
2022/12/25 01:05:55;;;;;;;5.47;1.13;;;;;;;8.52;100.00;98784.84;4953919;28;20737;-58
2022/12/25 01:08:21;;;;;;;3.27;1.27;;;;;;;8.51;100.00;98788.41;4953879;28;20230;-59
2022/12/25 01:10:53;;;;;;;7.50;1.57;;;;;;;8.50;100.00;98788.50;4953262;28;20245;-58
2022/12/25 01:13:20;;;;;;;8.07;1.57;;;;;;;8.51;100.00;98784.97;4957548;28;20283;-58
2022/12/25 01:15:48;;;;;;;2.17;1.00;;;;;;;8.56;100.00;98788.81;4950373;28;20242;-59
2022/12/25 01:18:14;;;;;;;2.43;0.97;;;;;;;8.54;100.00;98784.69;4956372;28;20269;-59
2022/12/25 01:20:41;;;;;;;3.27;1.20;;;;;;;8.53;100.00;98791.69;4952763;28;20238;-59
2022/12/25 01:23:07;;;;;;;3.50;1.10;;;;;;;8.57;100.00;98794.84;4952971;28;20307;-59
2022/12/25 01:25:34;;;;;;;4.53;1.23;;;;;;;8.60;100.00;98793.75;4954715;28;20649;-58
2022/12/25 01:28:01;;;;;;;5.30;0.67;;;;;;;8.59;100.00;98794.72;4951546;28;20293;-58
2022/12/25 01:30:27;;;;;;;2.83;0.70;;;;;;;8.58;100.00;98791.28;4954913;28;20666;-59
2022/12/25 01:32:55;;;;;;;1.93;0.70;;;;;;;8.60;100.00;98781.56;4951266;28;20237;-58
2022/12/25 01:35:22;;;;;;;1.70;0.70;;;;;;;8.58;100.00;98780.88;4954061;28;20225;-59
2022/12/25 01:37:49;;;;;;;3.23;1.00;;;;;;;8.56;100.00;98777.56;4951622;28;20233;-58
2022/12/25 01:40:16;;;;;;;2.67;0.87;;;;;;;8.53;100.00;98783.88;4953675;28;20242;-59
2022/12/25 01:42:43;;;;;;;4.97;1.30;;;;;;;8.55;100.00;98787.19;4950655;28;20237;-58
2022/12/25 01:45:35;;;;;;;2.97;0.87;;;;;;;8.57;100.00;98787.03;4955231;28;20230;-59
2022/12/25 01:48:07;;;;;;;1.87;0.70;;;;;;;8.56;100.00;98788.81;4949374;28;20615;-59
2022/12/25 01:50:35;;;;;;;3.03;0.80;;;;;;;8.59;100.00;98789.50;4952278;28;20290;-58
2022/12/25 01:53:02;;;;;;;1.77;0.93;;;;;;;8.54;100.00;98785.53;4952978;28;20246;-58
2022/12/25 01:55:30;;;;;;;4.70;0.80;;;;;;;8.47;100.00;98788.78;4955432;28;20664;-59
2022/12/25 01:57:56;;;;;;;1.27;0.70;;;;;;;8.39;100.00;98787.66;4952441;28;20261;-59
2022/12/25 02:00:23;;;;;;;2.23;0.83;;;;;;;8.30;100.00;98790.22;4954714;28;20796;-58
2022/12/25 02:02:50;;;;;;;4.30;1.30;;;;;;;8.28;100.00;98793.78;4952435;28;20235;-59
2022/12/25 02:05:23;;;;;;;3.87;1.10;;;;;;;8.30;100.00;98795.41;4954610;28;20250;-59
2022/12/25 02:07:50;;;;;;;3.43;1.20;;;;;;;8.27;100.00;98791.31;4952973;28;20233;-58
2022/12/25 02:10:18;;;;;;;1.57;0.70;;;;;;;8.30;100.00;98782.41;4954245;28;20290;-59
2022/12/25 02:12:45;;;;;;;4.10;0.97;;;;;;;8.26;100.00;98782.69;4951222;28;20239;-58
2022/12/25 02:15:14;;;;;;;4.77;1.20;;;;;;;8.21;100.00;98782.25;4953619;28;20294;-58
2022/12/25 02:17:47;;;;;;;4.60;1.30;;;;;;;8.21;100.00;98774.44;4950615;28;20238;-59
2022/12/25 02:20:32;;;;;;;4.13;1.20;;;;;;;8.20;100.00;98774.59;4953677;28;21113;-58
2022/12/25 02:23:13;;;;;;;5.97;1.50;;;;;;;8.17;100.00;98772.25;4950998;28;20311;-58
2022/12/25 02:25:53;;;;;;;3.53;1.10;;;;;;;8.15;100.00;98761.97;4950189;28;20238;-59
2022/12/25 02:28:27;;;;;;;2.30;1.20;;;;;;;8.12;100.00;98752.69;4956219;28;20242;-58
2022/12/25 02:31:00;;;;;;;7.70;1.60;;;;;;;8.06;100.00;98741.97;4952462;28;20222;-58
2022/12/25 02:36:21;;;;;;;2.57;1.13;;;;;;;8.05;100.00;98741.16;4951676;28;20258;-58
2022/12/25 02:41:40;;;;;;;10.40;1.20;;;;;;;8.02;100.00;98745.78;4952104;28;20234;-59
2022/12/25 03:06:45;;;;;;;2.87;1.00;;;;;;;8.02;100.00;98738.81;4958844;28;20245;-58
2022/12/25 03:12:08;;;;;;;4.03;1.20;;;;;;;8.06;100.00;98726.38;4953929;28;20238;-58
2022/12/25 03:17:21;;;;;;;3.10;1.00;;;;;;;8.04;100.00;98723.06;4955062;28;20582;-59
2022/12/25 03:28:02;;;;;;;2.87;1.00;;;;;;;8.07;100.00;98725.41;4953969;28;20329;-59
2022/12/25 03:33:34;;;;;;;2.40;0.90;;;;;;;8.08;100.00;98733.09;4954335;28;20239;-59
2022/12/25 03:36:08;;;;;;;1.67;1.00;;;;;;;8.11;100.00;98727.63;4953806;28;20235;-59
2022/12/25 04:37:23;;;;;;;0.87;0.50;;;;;;;8.44;100.00;98667.59;4953605;28;20319;-58
2022/12/25 04:39:50;;;;;;;2.43;0.70;;;;;;;8.43;100.00;98676.34;4953905;28;20742;-59
2022/12/25 04:42:17;;;;;;;1.90;0.80;;;;;;;8.41;100.00;98673.91;4955944;28;20236;-58
2022/12/25 04:44:44;;;;;;;6.50;0.83;;;;;;;8.41;100.00;98671.31;4951163;28;20699;-59
2022/12/25 04:47:11;;;;;;;1.00;0.70;;;;;;;8.42;100.00;98666.91;4958528;28;20235;-58
2022/12/25 04:49:38;;;;;;;3.13;0.80;;;;;;;8.41;100.00;98666.09;4954053;28;20226;-59
2022/12/25 04:52:05;;;;;;;3.40;0.97;;;;;;;8.40;100.00;98669.66;4956625;28;20246;-58
2022/12/25 04:54:31;;;;;;;1.53;0.70;;;;;;;8.39;100.00;98662.81;4956058;28;20250;-59
2022/12/25 04:56:59;;;;;;;2.53;0.70;;;;;;;8.42;100.00;98667.75;4949406;28;20299;-58
2022/12/25 04:59:26;;;;;;;1.17;0.60;;;;;;;8.42;100.00;98665.16;4955294;28;20250;-58
2022/12/25 05:01:52;;;;;;;3.80;0.80;;;;;;;8.42;100.00;98666.91;4953287;28;20238;-58
2022/12/25 05:04:19;;;;;;;1.90;0.90;;;;;;;8.42;100.00;98667.75;4957301;28;20239;-58
2022/12/25 05:06:45;;;;;;;4.50;0.97;;;;;;;8.41;100.00;98667.88;4951782;28;20234;-58
2022/12/25 05:09:12;;;;;;;1.80;0.60;;;;;;;8.44;100.00;98664.19;4958104;28;20715;-59
2022/12/25 05:11:39;;;;;;;1.77;0.80;;;;;;;8.45;100.00;98665.84;4953888;28;20242;-58
2022/12/25 05:14:07;;;;;;;1.57;0.80;;;;;;;8.44;100.00;98665.00;4957071;28;20541;-58
2022/12/25 05:16:33;;;;;;;2.03;0.77;;;;;;;8.43;100.00;98655.53;4953151;28;20235;-58
2022/12/25 05:19:00;;;;;;;1.17;0.73;;;;;;;8.40;100.00;98659.25;4955563;28;20234;-58
2022/12/25 05:21:26;;;;;;;1.40;0.80;;;;;;;8.40;100.00;98659.25;4955579;28;20770;-58
2022/12/25 05:23:53;;;;;;;4.53;0.77;;;;;;;8.39;100.00;98652.41;4950862;28;20628;-58
2022/12/25 05:26:22;;;;;;;2.00;0.90;;;;;;;8.39;100.00;98646.38;4953190;28;20223;-58
2022/12/25 05:28:49;;;;;;;2.00;1.13;;;;;;;8.40;100.00;98641.03;4951100;28;20235;-59
2022/12/25 05:31:17;;;;;;;2.23;0.83;;;;;;;8.38;100.00;98639.53;4955637;28;20240;-59
2022/12/25 05:33:44;;;;;;;3.87;1.07;;;;;;;8.33;100.00;98631.31;4952200;28;20235;-60
2022/12/25 05:36:12;;;;;;;2.93;0.97;;;;;;;8.35;100.00;98625.03;4953116;28;20246;-59
2022/12/25 05:38:39;;;;;;;1.27;0.90;;;;;;;8.35;100.00;98624.19;4949852;28;20547;-58
2022/12/25 05:41:06;;;;;;;2.40;0.97;;;;;;;8.33;100.00;98626.94;4952940;28;20639;-58
2022/12/25 05:43:32;;;;;;;5.13;0.90;;;;;;;8.35;100.00;98614.63;4953849;28;20279;-59
2022/12/25 05:46:04;;;;;;;6.43;0.80;;;;;;;8.32;100.00;98607.09;4948641;28;20231;-59
2022/12/25 05:48:32;;;;;;;1.50;0.70;;;;;;;8.33;100.00;98607.91;4954723;28;20727;-59
2022/12/25 05:51:02;;;;;;;1.07;0.80;;;;;;;8.38;100.00;98610.91;4952249;28;20246;-57
2022/12/25 05:53:29;;;;;;;0.80;0.57;;;;;;;8.40;100.00;98606.41;4954293;28;20735;-58
2022/12/25 05:55:56;;;;;;;1.50;0.87;;;;;;;8.39;100.00;98603.00;4953009;28;20753;-57
2022/12/25 05:58:22;;;;;;;1.37;0.80;;;;;;;8.38;100.00;98605.72;4958634;28;20557;-58
2022/12/25 06:00:49;;;;;;;1.50;0.70;;;;;;;8.39;100.00;98596.94;4952560;28;20789;-59
2022/12/25 06:03:15;;;;;;;3.77;1.10;;;;;;;8.40;100.00;98596.00;4952923;28;20587;-59
2022/12/25 06:05:43;;;;;;;4.07;1.10;;;;;;;8.47;100.00;98596.28;4950540;28;20238;-59
2022/12/25 06:08:09;;;;;;;3.67;0.83;;;;;;;8.47;100.00;98591.06;4954495;28;20278;-59
2022/12/25 06:10:36;;;;;;;2.43;0.90;;;;;;;8.49;100.00;98592.59;4954716;28;20235;-58
2022/12/25 06:13:03;;;;;;;4.20;2.47;;;;;;;8.49;100.00;98583.97;4950672;28;20241;-59
2022/12/25 06:15:30;;;;;;;3.60;2.87;;;;;;;8.49;100.00;98579.59;4954894;28;20737;-59
2022/12/25 06:17:59;;;;;;;5.37;1.80;;;;;;;8.49;100.00;98579.59;4953289;28;20368;-58
2022/12/25 06:20:25;;;;;;;3.70;2.03;;;;;;;8.52;100.00;98583.69;4957788;28;20634;-59
2022/12/25 06:22:53;;;;;;;5.30;2.00;;;;;;;8.53;100.00;98590.53;4955924;28;20242;-59
2022/12/25 06:25:20;;;;;;;3.90;2.17;;;;;;;8.53;100.00;98596.56;4955896;28;20234;-59
2022/12/25 06:27:46;;;;;;;4.93;1.37;;;;;;;8.50;100.00;98594.25;4969518;28;20233;-58
2022/12/25 06:30:14;;;;;;;2.87;1.63;;;;;;;8.51;100.00;98600.25;4958612;28;20644;-57
2022/12/25 06:32:40;;;;;;;12.60;6.57;;;;;;;8.48;100.00;98609.13;4953211;28;20246;-58
2022/12/25 06:35:07;;;;;;;6.07;2.07;;;;;;;8.42;100.00;98614.88;4957872;28;20238;-62
2022/12/25 06:37:34;;;;;;;5.90;2.37;;;;;;;8.41;100.00;98616.69;4959680;28;20246;-58
2022/12/25 06:40:02;;;;;;;8.17;2.30;;;;;;;8.37;100.00;98635.28;4957834;28;20658;-58
2022/12/25 06:42:28;;;;;;;2.70;1.93;;;;;;;8.35;100.00;98627.63;4959778;28;20250;-59
2022/12/25 06:44:55;;;;;;;4.03;2.07;;;;;;;8.34;100.00;98625.97;4957105;28;20301;-58
2022/12/25 06:47:21;;;;;;;6.43;2.00;;;;;;;8.30;100.00;98616.81;4958946;28;20286;-58
2022/12/25 06:49:48;;;;;;;10.50;5.03;;;;;;;8.27;100.00;98614.47;4956045;28;20227;-58
2022/12/25 06:52:14;;;;;;;14.53;7.60;;;;;;;8.22;100.00;98629.66;4958027;28;20239;-59
2022/12/25 06:54:41;;;;;;;6.13;2.53;;;;;;;8.20;100.00;98627.19;4955044;28;20230;-58
2022/12/25 06:57:09;;;;;;;14.13;6.77;;;;;;;8.20;100.00;98626.38;4959692;28;20319;-58
2022/12/25 06:59:35;;;;;;;8.40;3.50;;;;;;;8.20;100.00;98626.38;4954908;28;20236;-58
2022/12/25 07:02:02;;;;;;;5.07;3.10;;;;;;;8.14;100.00;98617.31;4954066;28;20301;-59
2022/12/25 07:04:31;;;;;;;7.60;3.40;;;;;;;8.05;100.00;98613.78;4956693;28;20313;-59
2022/12/25 07:06:58;;;;;;;6.20;3.40;;;;;;;8.03;100.00;98609.66;4959989;28;20316;-59
2022/12/25 07:09:28;;;;;;;4.13;2.53;;;;;;;7.96;100.00;98607.59;4959666;28;20242;-58
2022/12/25 07:12:01;;;;;;;3.27;1.93;;;;;;;7.95;100.00;98607.72;4955325;28;20307;-58
2022/12/25 07:14:29;;;;;;;4.90;1.97;;;;;;;7.87;100.00;98602.38;4958923;28;20230;-58
2022/12/25 07:16:56;;;;;;;3.80;1.90;;;;;;;7.79;100.00;98603.06;4953300;28;20297;-58
2022/12/25 07:19:23;;;;;;;5.03;2.00;;;;;;;7.68;100.00;98588.38;4957910;28;20289;-57
2022/12/25 07:21:49;;;;;;;6.72;2.00;;;;;;;7.57;100.00;98588.50;4954555;28;20517;-58
2022/12/25 07:24:18;;;;;;;4.20;1.80;;;;;;;7.53;100.00;98580.16;4957416;28;20231;-59
2022/12/25 07:26:49;;;;;;;2.90;1.80;;;;;;;7.49;100.00;98583.97;4953437;28;20233;-58
2022/12/25 07:29:16;;;;;;;2.37;1.53;;;;;;;7.46;100.00;98587.63;4957593;28;20237;-58
2022/12/25 07:31:43;;;;;;;4.17;1.33;;;;;;;7.40;100.00;98580.41;4954258;28;20798;-58
2022/12/25 07:34:10;;;;;;;2.83;1.30;;;;;;;7.37;100.00;98580.66;4957194;28;20280;-58
2022/12/25 07:36:37;;;;;;;6.30;1.57;;;;;;;7.40;100.00;98593.38;4956367;28;20290;-58
2022/12/25 07:39:04;;;;;;;4.20;1.20;;;;;;;7.35;100.00;98598.97;4950526;28;20317;-57
2022/12/25 07:41:30;;;;;;;4.37;1.37;;;;;;;7.34;100.00;98610.31;4956748;28;20250;-58
2022/12/25 07:44:13;;;;;;;4.43;1.77;;;;;;;7.38;100.00;98616.06;4952063;28;20508;-58
2022/12/25 07:46:39;;;;;;;4.10;1.97;;;;;;;7.39;100.00;98628.91;4953063;28;20296;-59
2022/12/25 07:49:07;;;;;;;5.73;2.10;;;;;;;7.43;100.00;98629.47;4959519;28;20650;-59
2022/12/25 07:51:34;;;;;;;3.67;2.10;;;;;;;7.47;100.00;98632.63;4960997;28;20235;-58
2022/12/25 07:54:00;;;;;;;6.33;1.80;;;;;;;7.54;100.00;98642.34;4952980;28;20230;-58
2022/12/25 07:56:27;;;;;;;3.13;1.60;;;;;;;7.63;100.00;98639.91;4957214;28;20626;-59
2022/12/25 07:58:54;;;;;;;3.70;1.47;;;;;;;7.68;100.00;98645.56;4954916;28;20241;-58
2022/12/25 08:01:22;;;;;;;8.33;1.63;;;;;;;7.72;100.00;98639.13;4955924;28;20227;-59
2022/12/25 08:03:50;;;;;;;7.23;1.70;;;;;;;7.75;100.00;98628.47;4957159;28;20235;-58
2022/12/25 08:06:19;;;;;;;5.50;2.40;;;;;;;7.79;100.00;98631.66;4955314;28;20707;-58
2022/12/25 08:08:46;;;;;;;3.87;2.33;;;;;;;7.85;100.00;98640.69;4956446;28;20902;-59
2022/12/25 08:11:13;;;;;;;6.57;3.87;;;;;;;7.94;100.00;98642.47;4956992;28;20242;-58
2022/12/25 08:13:40;;;;;;;4.13;2.10;;;;;;;8.05;100.00;98647.56;4955342;28;20634;-59
2022/12/25 08:16:09;;;;;;;4.33;1.70;;;;;;;8.11;100.00;98651.41;4957816;28;20239;-59
2022/12/25 08:18:36;;;;;;;5.13;2.20;;;;;;;8.16;100.00;98640.59;4956774;28;20234;-59
2022/12/25 08:21:05;;;;;;;3.27;2.07;;;;;;;8.20;100.00;98636.78;4952258;28;20246;-58
2022/12/25 08:23:35;;;;;;;6.33;2.30;;;;;;;8.23;100.00;98632.13;4955115;28;20288;-59
2022/12/25 08:26:03;;;;;;;3.00;2.20;;;;;;;8.24;100.00;98622.56;4953036;28;20238;-59
2022/12/25 08:28:30;;;;;;;4.23;2.77;;;;;;;8.24;100.00;98607.75;4954025;28;20755;-58
2022/12/25 08:30:57;;;;;;;7.03;3.90;;;;;;;8.25;100.00;98593.00;4955355;28;20322;-58
2022/12/25 08:33:24;;;;;;;5.70;3.00;;;;;;;8.18;100.00;98576.28;4956910;28;20230;-58
2022/12/25 08:35:50;;;;;;;3.97;1.80;;;;;;;8.09;100.00;98565.75;4955076;28;20816;-58
2022/12/25 08:38:17;;;;;;;5.00;1.53;;;;;;;8.04;100.00;98554.94;4955832;28;20614;-59
2022/12/25 08:40:44;;;;;;;6.43;2.30;;;;;;;8.05;100.00;98566.97;4952538;28;20599;-59
2022/12/25 08:43:11;;;;;;;4.10;2.07;;;;;;;8.01;100.00;98572.56;4956100;28;20234;-58
2022/12/25 08:45:38;;;;;;;3.50;2.27;;;;;;;7.93;100.00;98584.50;4956310;28;20226;-59
2022/12/25 08:48:04;;;;;;;3.83;1.60;;;;;;;7.86;100.00;98570.41;4953670;28;20630;-58
2022/12/25 08:50:32;;;;;;;3.37;1.20;;;;;;;7.87;100.00;98574.63;4953819;28;20241;-58
2022/12/25 08:52:58;;;;;;;3.23;1.37;;;;;;;7.82;100.00;98577.63;4950638;28;20249;-59
2022/12/25 08:55:25;;;;;;;8.17;2.40;;;;;;;7.88;100.00;98581.47;4957384;28;20230;-58
2022/12/25 08:57:53;;;;;;;9.97;3.60;;;;;;;7.94;100.00;98598.28;4949204;28;20289;-58
2022/12/25 09:00:20;;;;;;;34.33;14.83;;;;;;;7.96;100.00;98607.59;4953790;28;20769;-58
2022/12/25 09:02:47;;;;;;;22.53;9.37;;;;;;;7.97;100.00;98605.81;4955018;28;20666;-58
2022/12/25 09:05:14;;;;;;;6.97;3.47;;;;;;;7.94;100.00;98611.28;4954281;28;20305;-58
2022/12/25 09:07:40;;;;;;;9.40;3.13;;;;;;;8.00;100.00;98617.72;4951926;28;20226;-60
2022/12/25 09:10:08;;;;;;;6.87;2.80;;;;;;;8.04;100.00;98617.34;4956549;28;20284;-58
2022/12/25 09:12:34;;;;;;;5.93;2.30;;;;;;;8.10;100.00;98626.34;4957011;28;20246;-58
2022/12/25 09:15:03;;;;;;;4.07;2.33;;;;;;;8.15;100.00;98631.97;4952029;28;20238;-59
2022/12/25 09:17:30;;;;;;;6.27;2.37;;;;;;;8.22;100.00;98633.06;4953908;28;20236;-58
2022/12/25 09:19:56;;;;;;;3.87;1.57;;;;;;;8.26;100.00;98639.66;4954146;28;20243;-59
2022/12/25 09:22:23;;;;;;;3.90;2.00;;;;;;;8.36;100.00;98638.84;4953118;28;20273;-58
2022/12/25 09:24:49;;;;;;;3.90;1.93;;;;;;;8.33;100.00;98636.50;4953890;28;20707;-58
2022/12/25 09:27:16;;;;;;;5.10;1.70;;;;;;;8.41;100.00;98634.88;4952946;28;20290;-58
2022/12/25 09:29:43;;;;;;;4.03;2.20;;;;;;;8.43;100.00;98632.13;4951813;28;20234;-59
2022/12/25 09:32:10;;;;;;;3.33;2.20;;;;;;;8.48;100.00;98636.94;4953746;28;20242;-58
2022/12/25 09:34:37;;;;;;;6.00;1.83;;;;;;;8.44;100.00;98635.56;4953521;28;20289;-58
2022/12/25 09:37:04;;;;;;;4.10;1.50;;;;;;;8.48;100.00;98635.16;4951962;28;20245;-58
2022/12/25 09:39:30;;;;;;;3.23;1.57;;;;;;;8.51;100.00;98634.91;4950280;28;20595;-59
2022/12/25 09:42:01;;;;;;;2.97;1.50;;;;;;;8.52;100.00;98638.31;4950401;28;20577;-59
2022/12/25 09:44:32;;;;;;;7.27;1.60;;;;;;;8.55;100.00;98632.84;4957434;28;20233;-58
2022/12/25 09:47:02;;;;;;;5.37;1.90;;;;;;;8.65;100.00;98618.03;4951030;28;20238;-58
2022/12/25 09:49:38;;;;;;;4.23;1.90;;;;;;;8.76;100.00;98621.44;4955766;28;20229;-59
2022/12/25 09:52:10;;;;;;;3.83;1.90;;;;;;;8.87;100.00;98618.69;4952602;28;20395;-59
2022/12/25 09:54:44;;;;;;;2.87;1.80;;;;;;;9.03;100.00;98625.13;4953279;28;20489;-58
2022/12/25 09:57:11;;;;;;;2.20;1.50;;;;;;;9.11;100.00;98618.22;4952570;28;20328;-59
2022/12/25 09:59:38;;;;;;;6.53;2.23;;;;;;;9.19;100.00;98603.66;4953859;28;20234;-58
2022/12/25 10:02:40;;;;;;;4.13;2.80;;;;;;;9.30;100.00;98591.31;4951073;28;20808;-58
2022/12/25 10:05:20;;;;;;;5.43;3.97;;;;;;;9.42;100.00;98591.13;4952931;28;20631;-58
2022/12/25 10:08:00;;;;;;;9.43;4.63;;;;;;;9.55;100.00;98581.16;4952004;28;20246;-58
2022/12/25 10:10:43;;;;;;;10.13;4.43;;;;;;;9.64;100.00;98570.81;4952958;28;20238;-59
2022/12/25 10:13:22;;;;;;;5.20;2.80;;;;;;;9.73;100.00;98572.56;4952039;28;20238;-58
2022/12/25 10:15:58;;;;;;;2.97;2.20;;;;;;;9.77;100.00;98567.88;4950913;28;20234;-59
2022/12/25 10:18:46;;;;;;;5.53;2.60;;;;;;;9.81;100.00;98564.81;4955871;28;20245;-58
2022/12/25 10:21:17;;;;;;;3.40;1.92;;;;;;;9.82;100.00;98568.28;4953327;28;20515;-58
2022/12/25 10:23:48;;;;;;;4.50;1.67;;;;;;;9.87;100.00;98563.44;4953565;28;20236;-59
2022/12/25 10:26:16;;;;;;;3.10;1.40;;;;;;;9.91;100.00;98549.13;4954377;28;20222;-59
2022/12/25 10:28:45;;;;;;;3.87;2.00;;;;;;;9.95;100.00;98554.84;4949939;28;20676;-60
2022/12/25 10:31:19;;;;;;;2.87;1.80;;;;;;;10.04;100.00;98544.38;4952218;28;20243;-60
2022/12/25 10:33:49;;;;;;;2.40;1.70;;;;;;;10.09;100.00;98549.13;4949837;28;20325;-60
2022/12/25 10:36:19;;;;;;;3.70;1.80;;;;;;;10.23;100.00;98536.53;4949433;28;20712;-59
2022/12/25 10:38:46;;;;;;;4.70;2.07;;;;;;;10.32;100.00;98546.06;4952256;28;20230;-60
2022/12/25 10:41:26;;;;;;;5.90;2.80;;;;;;;10.39;100.00;98551.47;4953598;28;20239;-59
2022/12/25 10:43:54;;;;;;;7.93;4.33;;;;;;;10.47;100.00;98565.47;4951263;28;20246;-60
2022/12/25 10:46:23;;;;;;;6.27;4.03;;;;;;;10.53;100.00;98571.84;4948005;28;20805;-60
2022/12/25 10:48:53;;;;;;;9.93;5.50;;;;;;;10.45;100.00;98572.63;4952909;28;20703;-59
2022/12/25 10:51:30;;;;;;;8.77;5.33;;;;;;;10.45;100.00;98572.63;4954239;28;20257;-58
2022/12/25 10:53:56;;;;;;;9.17;6.67;;;;;;;10.47;100.00;98569.84;4949228;28;20330;-59
2022/12/25 10:56:23;;;;;;;7.70;4.40;;;;;;;10.52;100.00;98567.59;4955622;28;20265;-59
2022/12/25 10:58:50;;;;;;;7.10;3.93;;;;;;;10.69;100.00;98563.31;4953842;28;20289;-59
2022/12/25 11:01:16;;;;;;;6.20;3.73;;;;;;;10.75;100.00;98562.69;4952636;28;20245;-59
2022/12/25 11:03:47;;;;;;;6.53;3.40;;;;;;;10.77;100.00;98554.72;4952557;28;20231;-59
2022/12/25 11:06:23;;;;;;;5.93;3.20;;;;;;;10.81;100.00;98557.81;4961247;28;20238;-58
2022/12/25 11:08:54;;;;;;;4.87;2.90;;;;;;;10.96;100.00;98551.06;4955610;28;20235;-59
2022/12/25 11:11:22;;;;;;;4.53;2.60;;;;;;;11.01;100.00;98543.59;4954939;28;20315;-59
2022/12/25 11:13:52;;;;;;;3.77;2.50;;;;;;;11.08;100.00;98533.34;4955807;28;20238;-59
2022/12/25 11:16:28;;;;;;;3.23;2.57;;;;;;;11.26;100.00;98525.41;4958607;28;20227;-58
2022/12/25 11:18:56;;;;;;;2.97;2.20;;;;;;;11.30;100.00;98524.13;4954453;28;20240;-60
2022/12/25 11:21:24;;;;;;;3.33;2.43;;;;;;;11.36;100.00;98505.19;4957809;28;20779;-59
2022/12/25 11:23:57;;;;;;;4.07;1.90;;;;;;;11.50;100.00;98490.69;4954994;28;20231;-59
2022/12/25 11:26:23;;;;;;;5.07;2.97;;;;;;;11.64;100.00;98496.25;4955869;28;20221;-58
2022/12/25 11:28:52;;;;;;;5.23;2.90;;;;;;;11.86;100.00;98494.81;4952348;28;20731;-60
2022/12/25 11:31:20;;;;;;;4.60;2.77;;;;;;;12.00;99.82;98501.25;4958660;28;20291;-59
2022/12/25 11:33:54;;;;;;;5.60;2.60;;;;;;;12.13;98.06;98508.59;4953094;28;20231;-59
2022/12/25 11:36:26;;;;;;;5.47;2.80;;;;;;;12.04;95.92;98499.94;4955556;28;20231;-59
2022/12/25 11:38:54;;;;;;;5.37;3.40;;;;;;;12.04;97.59;98493.88;4953859;28;20237;-59
2022/12/25 11:41:32;;;;;;;6.17;3.13;;;;;;;12.04;97.75;98478.19;4956315;28;20290;-59
2022/12/25 11:44:03;;;;;;;6.23;3.30;;;;;;;12.17;98.24;98477.69;4954260;28;20240;-60
2022/12/25 11:46:39;;;;;;;5.43;3.13;;;;;;;12.28;96.54;98481.78;4956542;28;20234;-59
2022/12/25 11:49:10;;;;;;;4.93;3.10;;;;;;;12.23;95.54;98475.22;4956305;28;20240;-59
2022/12/25 11:51:41;;;;;;;5.43;3.40;;;;;;;12.25;95.97;98475.03;4956732;28;20244;-59
2022/12/25 11:54:18;;;;;;;6.57;3.43;;;;;;;11.99;96.42;98467.34;4955828;28;20244;-59
2022/12/25 11:56:44;;;;;;;6.13;3.57;;;;;;;11.95;96.91;98466.88;4955332;28;20224;-60
2022/12/25 11:59:18;;;;;;;7.40;3.20;;;;;;;11.85;97.87;98450.53;4956970;28;20235;-59
2022/12/25 12:01:48;;;;;;;3.97;2.97;;;;;;;11.70;99.18;98445.09;4952825;28;20320;-58
2022/12/25 12:04:20;;;;;;;6.67;3.63;;;;;;;11.50;99.16;98433.19;4954130;28;20244;-60
2022/12/25 12:06:54;;;;;;;8.43;4.17;;;;;;;11.41;100.00;98444.59;4954296;28;20219;-60
2022/12/25 12:09:36;;;;;;;6.60;3.87;;;;;;;11.22;100.00;98448.31;4953009;28;20232;-58
2022/12/25 12:12:11;;;;;;;8.17;3.97;;;;;;;11.20;100.00;98460.72;4953139;28;20228;-60
2022/12/25 12:14:47;;;;;;;8.17;3.87;;;;;;;11.21;100.00;98446.69;4959086;28;20226;-60
2022/12/25 12:17:16;;;;;;;9.80;4.47;;;;;;;11.20;100.00;98452.88;4952271;28;20227;-59
2022/12/25 12:19:43;;;;;;;7.93;3.80;;;;;;;11.31;100.00;98456.97;4952644;28;20236;-59
2022/12/25 12:22:17;;;;;;;5.83;4.10;;;;;;;11.27;100.00;98446.03;4954703;28;20763;-58
2022/12/25 12:24:52;;;;;;;6.57;4.20;;;;;;;11.29;100.00;98457.16;4952855;28;20240;-60
2022/12/25 12:27:25;;;;;;;7.60;3.87;;;;;;;11.30;100.00;98456.19;4955186;28;20239;-59
2022/12/25 12:29:54;;;;;;;6.93;4.27;;;;;;;11.35;100.00;98459.13;4956982;28;20292;-58
2022/12/25 12:32:37;;;;;;;9.23;3.93;;;;;;;11.21;100.00;98462.34;4955218;28;20940;-59
2022/12/25 12:35:18;;;;;;;6.33;4.03;;;;;;;11.22;100.00;98453.53;4954009;28;20232;-60
2022/12/25 12:37:48;;;;;;;6.43;4.47;;;;;;;11.30;100.00;98444.91;4954602;28;20243;-59
2022/12/25 12:40:28;;;;;;;7.13;4.90;;;;;;;11.27;100.00;98432.16;4954688;28;20226;-60
2022/12/25 12:42:55;;;;;;;6.13;4.17;;;;;;;11.25;100.00;98432.31;4951889;28;20250;-59
2022/12/25 12:45:26;;;;;;;5.60;4.37;;;;;;;11.26;100.00;98420.06;4955499;28;20235;-60
2022/12/25 12:47:53;;;;;;;8.17;5.10;;;;;;;11.30;100.00;98421.38;4951535;28;20236;-60
2022/12/25 12:50:29;;;;;;;5.97;4.40;;;;;;;11.26;100.00;98423.50;4953039;28;20227;-61
2022/12/25 12:52:56;;;;;;;8.83;4.90;;;;;;;11.23;100.00;98431.66;4953533;28;20629;-59
2022/12/25 12:55:30;;;;;;;7.97;4.47;;;;;;;11.31;100.00;98441.31;4954408;28;20808;-58
2022/12/25 12:58:01;;;;;;;10.50;6.00;;;;;;;11.27;100.00;98446.03;4953044;28;20345;-59
2022/12/25 13:00:49;;;;;;;8.27;5.23;;;;;;;11.27;100.00;98440.00;4956922;28;20242;-58
2022/12/25 13:03:45;;;;;;;9.13;5.70;;;;;;;11.33;100.00;98458.47;4953985;28;20748;-59
2022/12/25 13:06:17;;;;;;;6.90;4.50;;;;;;;11.42;100.00;98458.50;4939344;28;20235;-59
2022/12/25 13:08:57;;;;;;;7.73;4.93;;;;;;;11.41;100.00;98454.25;4950997;28;20640;-59
2022/12/25 13:11:27;;;;;;;7.30;4.73;;;;;;;11.51;100.00;98474.03;4954186;28;20228;-59
2022/12/25 13:13:57;;;;;;;6.73;4.40;;;;;;;11.54;100.00;98478.13;4952355;28;20595;-59
2022/12/25 13:16:27;;;;;;;7.03;4.73;;;;;;;11.60;100.00;98468.81;4953669;28;20248;-60
2022/12/25 13:18:56;;;;;;;8.43;4.90;;;;;;;11.51;100.00;98466.19;4952791;28;20232;-59
2022/12/25 13:21:24;;;;;;;7.17;4.80;;;;;;;11.58;100.00;98463.75;4959060;28;20248;-59
2022/12/25 13:23:56;;;;;;;11.07;5.00;;;;;;;11.63;100.00;98468.47;4954001;28;20288;-58
2022/12/25 13:26:23;;;;;;;10.37;6.60;;;;;;;11.62;100.00;98459.00;4954804;28;20280;-60